Time;durP1;ratioP1;P1;durP2;ratioP2;P2;SDS_P1;SDS_P2;PMS_P1;PMS_P2;Temp;Humidity;BMP_temperature;BMP_pressure;BME280_temperature;BME280_humidity;BME280_pressure;Samples;Min_cycle;Max_cycle;Signal;HPM_P1;HPM_P2
2022/02/07 00:01:57;;;;;;;43.35;25.88;;;;;;;8.76;38.91;94855.72;5029756;28;20300;-65
2022/02/07 00:04:28;;;;;;;46.78;26.83;;;;;;;8.69;38.72;94839.44;5028948;28;20216;-64
2022/02/07 00:06:55;;;;;;;58.88;28.98;;;;;;;8.54;39.28;94852.34;5029655;28;20217;-64
2022/02/07 00:09:22;;;;;;;51.30;27.15;;;;;;;8.61;39.32;94845.09;5029099;28;20254;-64
2022/02/07 00:11:49;;;;;;;44.08;25.25;;;;;;;8.55;39.19;94827.81;5029937;28;20240;-65
2022/02/07 00:14:16;;;;;;;53.55;29.63;;;;;;;8.64;39.39;94849.84;5029413;28;20205;-65
2022/02/07 00:16:44;;;;;;;54.70;28.20;;;;;;;8.60;39.42;94830.47;5028852;28;20205;-65
2022/02/07 00:19:17;;;;;;;52.17;28.90;;;;;;;8.66;39.92;94839.94;5028657;28;20284;-65
2022/02/07 00:21:48;;;;;;;79.13;39.65;;;;;;;8.45;39.74;94822.47;5029284;28;20235;-65
2022/02/07 00:24:15;;;;;;;63.20;32.60;;;;;;;8.69;39.68;94838.66;5029037;28;20201;-65
2022/02/07 00:26:42;;;;;;;56.90;31.60;;;;;;;8.73;38.79;94824.88;5029341;28;20644;-64
2022/02/07 00:29:09;;;;;;;48.58;26.25;;;;;;;7.89;41.55;94830.56;5027154;28;20212;-65
2022/02/07 00:31:36;;;;;;;47.65;26.38;;;;;;;8.21;40.36;94815.88;5028855;28;20545;-64
2022/02/07 00:34:03;;;;;;;50.97;26.50;;;;;;;8.14;40.24;94815.25;5028908;28;20708;-65
2022/02/07 00:36:31;;;;;;;45.03;24.77;;;;;;;8.02;40.55;94817.19;5028984;28;20613;-65
2022/02/07 00:39:05;;;;;;;47.00;22.77;;;;;;;8.20;40.57;94803.84;5028162;28;20173;-65
2022/02/07 00:41:51;;;;;;;44.83;24.90;;;;;;;7.53;41.89;94815.44;5027503;28;20231;-65
2022/02/07 00:44:20;;;;;;;43.83;23.13;;;;;;;6.32;45.11;94818.53;5028630;28;20291;-65
2022/02/07 00:46:57;;;;;;;38.63;22.77;;;;;;;7.63;42.32;94797.34;5029313;28;20611;-66
2022/02/07 00:49:26;;;;;;;44.38;23.45;;;;;;;7.35;42.53;94803.47;5027358;28;20205;-65
2022/02/07 00:51:53;;;;;;;38.53;21.58;;;;;;;6.34;45.64;94798.28;5027772;28;20202;-64
2022/02/07 00:54:20;;;;;;;43.50;22.38;;;;;;;7.71;42.53;94784.69;5026978;28;20201;-65
2022/02/07 00:56:49;;;;;;;40.47;21.80;;;;;;;8.01;41.41;94763.44;5027899;28;20205;-66
2022/02/07 00:59:16;;;;;;;42.92;23.05;;;;;;;8.13;40.67;94758.88;5027208;28;20299;-65
2022/02/07 01:01:43;;;;;;;41.78;21.35;;;;;;;7.40;42.47;94787.09;5027654;28;20628;-65
2022/02/07 01:04:12;;;;;;;35.95;20.70;;;;;;;7.54;42.77;94754.44;5027295;28;20201;-66
2022/02/07 01:07:04;;;;;;;38.35;22.27;;;;;;;7.55;42.63;94737.78;5033737;28;20311;-65
2022/02/07 01:09:41;;;;;;;40.50;21.52;;;;;;;8.08;41.14;94737.97;5030454;28;20675;-65
2022/02/07 01:15:12;;;;;;;36.97;19.95;;;;;;;8.01;42.05;94730.28;5032510;28;20275;-64
2022/02/07 01:23:16;;;;;;;36.13;20.27;;;;;;;8.14;41.55;94739.56;5031367;28;20644;-65
2022/02/07 01:54:49;;;;;;;29.45;16.65;;;;;;;8.22;42.47;94666.06;5030057;28;20205;-65
2022/02/07 01:57:19;;;;;;;27.30;14.88;;;;;;;7.13;43.95;94685.34;5030385;28;20205;-65
2022/02/07 01:59:49;;;;;;;43.83;21.60;;;;;;;8.11;42.96;94656.56;5029399;28;20231;-64
2022/02/07 02:02:18;;;;;;;30.40;17.67;;;;;;;8.33;41.80;94662.56;5030500;28;20205;-65
2022/02/07 02:04:44;;;;;;;29.15;16.73;;;;;;;8.54;41.10;94653.88;5030034;28;20255;-65
2022/02/07 02:07:22;;;;;;;31.80;17.40;;;;;;;8.48;41.14;94644.44;5030548;28;20772;-65
2022/02/07 02:09:49;;;;;;;30.13;16.65;;;;;;;8.39;41.48;94640.69;5031077;28;20308;-65
2022/02/07 02:12:17;;;;;;;26.98;15.95;;;;;;;8.60;41.50;94632.00;5030165;28;20220;-65
2022/02/07 02:15:02;;;;;;;28.92;15.80;;;;;;;7.82;42.97;94661.22;5030071;28;20205;-65
2022/02/07 02:18:05;;;;;;;24.98;14.15;;;;;;;6.87;45.38;94642.50;5031905;28;20216;-64
2022/02/07 02:34:39;;;;;;;27.73;15.68;;;;;;;8.29;42.81;94624.13;5030871;28;20200;-64
2022/02/07 02:47:40;;;;;;;29.67;17.05;;;;;;;7.28;44.95;94614.41;5029450;28;20216;-65
2022/02/07 02:50:29;;;;;;;28.85;16.15;;;;;;;8.14;43.63;94616.91;5028889;28;20203;-67
2022/02/07 02:53:00;;;;;;;28.38;15.93;;;;;;;7.90;44.29;94620.88;5031054;28;20243;-65
2022/02/07 02:55:30;;;;;;;28.38;16.35;;;;;;;8.23;43.60;94610.22;5030694;28;20227;-65
2022/02/07 02:58:01;;;;;;;26.17;16.02;;;;;;;8.02;43.91;94601.44;5029666;28;20209;-66
2022/02/07 03:00:28;;;;;;;31.10;16.02;;;;;;;8.71;43.02;94583.22;5030318;28;20196;-64
2022/02/07 03:02:56;;;;;;;20.48;11.70;;;;;;;6.45;47.74;94604.06;5029481;28;20201;-65
2022/02/07 03:05:24;;;;;;;24.25;15.05;;;;;;;7.86;45.10;94572.81;5029104;28;20271;-64
2022/02/07 03:07:51;;;;;;;27.05;15.73;;;;;;;8.41;43.69;94570.72;5030392;28;20295;-64
2022/02/07 03:10:43;;;;;;;24.27;15.27;;;;;;;8.74;42.52;94580.91;5029965;28;20581;-65
2022/02/07 03:18:27;;;;;;;28.67;15.55;;;;;;;8.02;44.74;94587.59;5028163;28;20197;-64
2022/02/07 03:20:55;;;;;;;24.60;15.30;;;;;;;7.32;46.77;94602.47;5029091;28;20300;-64
2022/02/07 03:23:22;;;;;;;25.00;15.05;;;;;;;8.12;44.72;94572.00;5029983;28;20605;-65
2022/02/07 03:25:50;;;;;;;30.15;16.85;;;;;;;8.38;44.21;94576.44;5029058;28;20283;-64
2022/02/07 03:28:22;;;;;;;23.55;14.80;;;;;;;8.67;42.86;94577.72;5027452;28;20302;-64
2022/02/07 03:30:49;;;;;;;32.67;21.63;;;;;;;8.61;43.77;94580.56;5028620;28;20535;-64
2022/02/07 03:33:17;;;;;;;37.70;24.70;;;;;;;8.71;43.15;94581.41;5028509;28;20201;-64
2022/02/07 03:35:45;;;;;;;26.65;16.13;;;;;;;7.83;45.28;94589.75;5028655;28;20229;-65
2022/02/07 03:38:13;;;;;;;25.17;16.70;;;;;;;8.47;43.72;94572.34;5028149;28;20200;-64
2022/02/07 03:40:40;;;;;;;28.42;16.77;;;;;;;9.04;43.13;94581.09;5029098;28;20703;-66
2022/02/07 03:43:08;;;;;;;25.88;15.88;;;;;;;9.00;42.68;94569.56;5028619;28;20255;-65
2022/02/07 03:45:36;;;;;;;26.98;16.08;;;;;;;8.93;42.87;94583.91;5030161;28;20635;-65
2022/02/07 03:48:11;;;;;;;21.90;10.57;;;;;;;6.82;47.72;94589.53;5027968;28;20228;-65
2022/02/07 03:50:38;;;;;;;26.05;15.80;;;;;;;7.89;45.67;94582.75;5028599;28;20225;-65
2022/02/07 03:53:05;;;;;;;26.58;15.73;;;;;;;7.72;46.46;94587.28;5028375;28;20261;-64
2022/02/07 03:55:43;;;;;;;25.38;16.15;;;;;;;7.79;45.99;94551.38;5028732;28;20221;-64
2022/02/07 03:58:11;;;;;;;22.67;14.98;;;;;;;8.02;45.29;94509.31;5027590;28;20324;-65
2022/02/07 04:00:39;;;;;;;24.30;14.85;;;;;;;8.36;45.12;94557.63;5029434;28;21386;-64
2022/02/07 04:03:31;;;;;;;23.08;14.05;;;;;;;7.53;47.33;94557.34;5028112;28;20216;-64
2022/02/07 04:06:02;;;;;;;26.98;15.00;;;;;;;8.58;44.95;94553.09;5028579;28;20234;-64
2022/02/07 04:08:33;;;;;;;24.65;14.25;;;;;;;8.70;44.58;94537.25;5027263;28;20324;-64
2022/02/07 04:11:18;;;;;;;26.23;13.35;;;;;;;8.83;44.82;94553.25;5028248;28;20669;-64
2022/02/07 04:13:54;;;;;;;23.45;13.55;;;;;;;9.12;45.27;94553.69;5029065;28;20199;-66
2022/02/07 04:16:23;;;;;;;28.05;13.80;;;;;;;8.08;47.24;94571.72;5028142;28;20638;-65
2022/02/07 04:21:32;;;;;;;29.95;17.38;;;;;;;8.32;46.21;94567.00;5028000;28;20198;-64
2022/02/07 04:24:00;;;;;;;35.75;20.60;;;;;;;8.71;45.71;94555.28;5027473;28;20260;-64
2022/02/07 04:26:31;;;;;;;25.70;13.98;;;;;;;7.27;48.77;94556.28;5027999;28;20231;-66
2022/02/07 04:28:59;;;;;;;26.52;15.23;;;;;;;8.80;45.42;94527.66;5026787;28;20319;-65
2022/02/07 04:31:28;;;;;;;27.92;15.85;;;;;;;9.15;44.56;94540.91;5028093;28;20684;-64
2022/02/07 04:33:56;;;;;;;309.48;113.05;;;;;;;9.15;44.29;94527.84;5027647;28;20231;-64
2022/02/07 04:36:26;;;;;;;54.72;25.55;;;;;;;9.72;43.22;94519.91;5027872;28;20201;-66
2022/02/07 04:38:53;;;;;;;75.32;29.02;;;;;;;8.99;44.77;94536.66;5028566;28;20178;-65
2022/02/07 04:41:23;;;;;;;33.63;19.05;;;;;;;9.46;43.85;94525.31;5027725;28;20292;-65
2022/02/07 04:44:02;;;;;;;37.40;20.45;;;;;;;9.84;42.94;94511.81;5026906;28;20679;-65
2022/02/07 05:00:22;;;;;;;33.22;24.52;;;;;;;9.91;42.91;94504.50;5026223;28;20215;-63
2022/02/07 05:13:49;;;;;;;27.70;15.48;;;;;;;9.75;43.43;94488.00;5026953;28;20205;-64
2022/02/07 05:16:26;;;;;;;25.92;15.73;;;;;;;9.88;43.41;94486.72;5027874;28;20244;-64
2022/02/07 05:19:13;;;;;;;25.52;15.98;;;;;;;9.86;43.75;94488.78;5028518;28;20643;-65
2022/02/07 05:21:48;;;;;;;24.17;15.70;;;;;;;9.67;44.04;94501.56;5027657;28;20205;-65
2022/02/07 05:24:23;;;;;;;25.48;15.38;;;;;;;9.61;44.14;94491.38;5028349;28;20624;-65
2022/02/07 05:27:08;;;;;;;24.65;15.80;;;;;;;9.55;44.36;94498.44;5027367;28;20201;-65
2022/02/07 05:30:10;;;;;;;25.60;15.43;;;;;;;9.76;44.06;94510.50;5045082;28;20226;-68
2022/02/07 05:33:00;;;;;;;23.85;15.95;;;;;;;9.26;44.75;94488.66;5028543;28;20201;-66
2022/02/07 05:35:45;;;;;;;27.75;16.92;;;;;;;9.51;44.32;94478.25;5027324;28;20570;-66
2022/02/07 05:38:45;;;;;;;29.52;18.80;;;;;;;9.71;43.81;94480.91;5025677;28;20229;-66
2022/02/07 05:41:45;;;;;;;33.90;21.02;;;;;;;9.84;43.86;94470.75;5026020;28;20258;-66
2022/02/07 05:44:22;;;;;;;77.43;46.40;;;;;;;10.10;45.23;94484.66;5024797;28;20599;-64
2022/02/07 05:47:24;;;;;;;37.17;21.52;;;;;;;10.35;44.54;94497.72;5024190;28;20411;-64
2022/02/07 05:50:09;;;;;;;30.05;19.20;;;;;;;10.37;44.51;94500.88;5024452;28;20283;-66
2022/02/07 05:52:52;;;;;;;29.67;18.20;;;;;;;9.69;43.95;94509.19;5028582;28;20217;-67
2022/02/07 05:55:39;;;;;;;29.20;18.15;;;;;;;8.43;46.81;94521.66;5031151;28;20563;-66
2022/02/07 05:58:28;;;;;;;51.30;23.50;;;;;;;9.23;45.03;94515.31;5031537;28;20220;-67
2022/02/07 06:01:18;;;;;;;27.13;16.42;;;;;;;8.36;47.23;94521.09;5030505;28;20220;-67
2022/02/07 06:03:45;;;;;;;27.90;17.27;;;;;;;9.14;46.22;94505.34;5029625;28;20288;-66
2022/02/07 06:06:13;;;;;;;29.40;17.63;;;;;;;8.53;46.73;94510.50;5030693;28;20730;-66
2022/02/07 06:08:42;;;;;;;43.95;25.13;;;;;;;8.23;48.35;94521.47;5030072;28;20221;-64
2022/02/07 06:11:12;;;;;;;44.47;27.45;;;;;;;8.25;48.89;94540.31;5030417;28;20346;-64
2022/02/07 06:13:41;;;;;;;30.20;18.33;;;;;;;9.01;47.15;94513.66;5029968;28;20209;-67
2022/02/07 06:16:15;;;;;;;32.30;18.17;;;;;;;9.91;45.79;94491.41;5029947;28;20201;-67
2022/02/07 06:18:48;;;;;;;29.70;17.17;;;;;;;10.32;44.50;94508.75;5029986;28;20723;-68
2022/02/07 06:21:18;;;;;;;31.98;18.50;;;;;;;10.65;44.59;94495.09;5031890;28;20303;-67
2022/02/07 06:23:46;;;;;;;27.00;18.13;;;;;;;10.67;43.41;94484.34;5034281;28;20209;-69
2022/02/07 06:26:16;;;;;;;28.13;16.92;;;;;;;10.33;43.84;94515.53;5031982;28;20224;-68
2022/02/07 06:28:46;;;;;;;26.60;17.17;;;;;;;10.58;43.09;94502.44;5029163;28;20319;-66
2022/02/07 06:31:14;;;;;;;30.05;19.20;;;;;;;10.81;42.41;94507.09;5028643;28;20205;-68
2022/02/07 06:33:41;;;;;;;33.90;19.42;;;;;;;10.78;42.54;94497.16;5027307;28;20227;-66
2022/02/07 06:36:10;;;;;;;34.60;19.45;;;;;;;10.25;43.82;94482.03;5028224;28;20201;-67
2022/02/07 06:38:39;;;;;;;31.67;18.80;;;;;;;10.64;43.15;94493.50;5028003;28;20287;-67
2022/02/07 06:41:07;;;;;;;32.95;20.40;;;;;;;9.84;44.59;94490.88;5029368;28;20205;-67
2022/02/07 06:43:34;;;;;;;30.58;20.45;;;;;;;10.47;43.83;94498.28;5013212;28;20205;-66
2022/02/07 06:46:05;;;;;;;30.45;20.65;;;;;;;10.66;43.06;94488.78;5030250;28;20583;-67
2022/02/07 06:48:31;;;;;;;29.63;21.13;;;;;;;10.42;43.92;94502.72;5029097;28;20225;-67
2022/02/07 06:50:58;;;;;;;35.92;21.70;;;;;;;10.66;43.18;94483.53;5029720;28;20202;-67
2022/02/07 06:53:27;;;;;;;35.50;23.20;;;;;;;10.50;43.71;94492.50;5029558;28;20205;-67
2022/02/07 06:55:55;;;;;;;32.08;21.05;;;;;;;10.91;42.36;94469.59;5029875;28;20683;-66
2022/02/07 06:58:22;;;;;;;36.47;24.30;;;;;;;10.53;43.79;94494.56;5030725;28;20221;-67
2022/02/07 07:00:49;;;;;;;33.72;21.25;;;;;;;10.82;43.44;94490.31;5029404;28;20205;-67
2022/02/07 07:03:19;;;;;;;36.28;21.27;;;;;;;10.98;43.12;94480.59;5029455;28;20209;-68
2022/02/07 07:05:50;;;;;;;38.53;23.35;;;;;;;11.14;42.73;94459.28;5029807;28;20657;-67
2022/02/07 07:08:20;;;;;;;33.13;20.50;;;;;;;11.21;42.45;94459.00;5029227;28;20290;-66
2022/02/07 07:10:48;;;;;;;32.42;19.17;;;;;;;11.30;42.08;94472.31;5029229;28;20289;-66
2022/02/07 07:13:23;;;;;;;27.13;18.08;;;;;;;11.27;42.02;94472.88;5029094;28;20661;-67
2022/02/07 07:16:00;;;;;;;32.75;19.98;;;;;;;11.28;42.90;94446.38;5029761;28;20690;-67
2022/02/07 07:18:29;;;;;;;35.83;21.00;;;;;;;11.42;42.57;94454.44;5029275;28;20223;-67
2022/02/07 07:20:56;;;;;;;31.52;20.15;;;;;;;11.12;42.54;94450.91;5029046;28;20205;-67
2022/02/07 07:23:24;;;;;;;32.40;20.98;;;;;;;11.67;41.97;94456.94;5033984;28;20276;-68
2022/02/07 07:25:55;;;;;;;34.92;19.20;;;;;;;10.04;45.14;94475.97;5049377;28;20317;-67
2022/02/07 07:28:26;;;;;;;39.53;21.35;;;;;;;10.69;44.16;94445.56;5048874;28;21061;-66
2022/02/07 07:30:56;;;;;;;30.67;18.80;;;;;;;11.49;43.15;94441.81;5048924;28;20214;-67
2022/02/07 07:33:32;;;;;;;27.67;17.63;;;;;;;11.63;42.61;94464.53;5048763;28;20204;-68
2022/02/07 07:36:01;;;;;;;31.45;19.02;;;;;;;12.34;41.36;94449.06;5049120;28;20258;-67
2022/02/07 07:38:30;;;;;;;30.40;17.92;;;;;;;12.48;41.55;94418.44;5048525;28;20618;-66
2022/02/07 07:40:58;;;;;;;34.38;19.55;;;;;;;12.47;40.48;94430.03;5049074;28;20266;-68
2022/02/07 07:43:35;;;;;;;33.30;19.75;;;;;;;12.32;40.84;94422.28;5048709;28;20302;-67
2022/02/07 07:46:18;;;;;;;31.42;20.23;;;;;;;12.68;40.47;94386.69;5050595;28;20274;-67
2022/02/07 07:49:04;;;;;;;30.80;18.63;;;;;;;12.28;40.93;94396.88;5048406;28;20270;-67
2022/02/07 07:51:59;;;;;;;30.00;19.10;;;;;;;12.48;40.98;94386.16;5051727;28;20536;-66
2022/02/07 08:02:57;;;;;;;31.63;20.60;;;;;;;12.80;41.08;94413.41;5048769;28;20784;-67
2022/02/07 08:05:48;;;;;;;30.43;19.63;;;;;;;12.95;40.49;94407.97;5048144;28;20961;-66
2022/02/07 08:08:29;;;;;;;28.83;18.60;;;;;;;13.37;40.03;94380.88;5048398;28;20540;-67
2022/02/07 08:13:31;;;;;;;25.25;16.85;;;;;;;12.47;40.32;94398.50;5048253;28;20871;-67
2022/02/07 08:16:04;;;;;;;30.27;16.93;;;;;;;12.70;40.08;94345.16;5048139;28;20235;-66
2022/02/07 08:18:32;;;;;;;23.97;16.30;;;;;;;12.97;40.22;94328.78;5049270;28;20443;-66
2022/02/07 08:20:59;;;;;;;26.90;16.17;;;;;;;12.93;39.91;94359.34;5049391;28;20454;-67
2022/02/07 08:23:26;;;;;;;21.60;14.57;;;;;;;12.89;39.82;94367.00;5049556;28;20439;-68
2022/02/07 08:25:53;;;;;;;30.37;15.80;;;;;;;11.50;41.71;94352.31;5049619;28;20454;-68
2022/02/07 08:28:40;;;;;;;24.60;15.25;;;;;;;11.97;41.96;94333.34;5049588;28;20566;-67
2022/02/07 08:31:07;;;;;;;27.63;15.90;;;;;;;12.47;40.60;94309.16;5049328;28;20193;-67
2022/02/07 08:33:34;;;;;;;30.57;16.30;;;;;;;12.70;40.72;94287.31;5049355;28;20443;-66
2022/02/07 08:36:05;;;;;;;24.07;14.90;;;;;;;12.73;40.23;94291.25;5051210;28;20506;-66
2022/02/07 08:38:33;;;;;;;22.77;15.07;;;;;;;12.74;40.31;94303.31;5049297;28;20443;-67
2022/02/07 08:41:01;;;;;;;24.90;14.03;;;;;;;12.99;39.50;94319.53;5049143;28;20438;-67
2022/02/07 08:43:28;;;;;;;21.83;13.90;;;;;;;12.37;39.97;94335.53;5048945;28;20438;-67
2022/02/07 08:45:55;;;;;;;21.30;13.63;;;;;;;12.17;40.76;94320.78;5049329;28;20489;-66
2022/02/07 08:48:23;;;;;;;22.10;14.53;;;;;;;12.69;40.01;94295.50;5049245;28;20475;-66
2022/02/07 08:50:52;;;;;;;27.80;16.47;;;;;;;13.04;39.52;94301.09;5049423;28;20442;-66
2022/02/07 08:53:21;;;;;;;30.70;18.37;;;;;;;12.90;39.70;94302.81;5048691;28;20450;-67
2022/02/07 08:55:52;;;;;;;26.23;16.13;;;;;;;13.23;39.41;94309.75;5049441;28;20443;-66
2022/02/07 08:58:23;;;;;;;28.73;15.90;;;;;;;13.51;39.47;94291.44;5049128;28;20454;-67
2022/02/07 09:10:45;;;;;;;25.43;13.60;;;;;;;13.52;39.10;94277.22;5048946;28;20431;-68
2022/02/07 09:13:12;;;;;;;21.43;13.63;;;;;;;13.52;39.14;94277.22;5048681;28;20439;-66
2022/02/07 09:18:11;;;;;;;30.90;15.93;;;;;;;13.61;38.26;94291.28;5048722;28;20991;-66
2022/02/07 09:20:43;;;;;;;24.40;15.83;;;;;;;13.63;38.70;94284.66;5049056;28;20431;-66
2022/02/07 09:23:09;;;;;;;28.80;16.97;;;;;;;13.72;38.85;94282.16;5048533;28;20435;-67
2022/02/07 09:25:37;;;;;;;28.53;16.77;;;;;;;14.17;38.07;94283.97;5049012;28;20446;-67
2022/02/07 09:28:04;;;;;;;23.20;15.27;;;;;;;14.61;37.99;94284.22;5051295;28;20546;-68
2022/02/07 09:30:32;;;;;;;24.93;15.33;;;;;;;14.70;37.30;94282.44;5052207;28;20917;-65
2022/02/07 09:32:58;;;;;;;37.47;16.43;;;;;;;14.27;37.56;94268.00;5053204;28;20442;-66
2022/02/07 09:35:25;;;;;;;31.83;15.67;;;;;;;14.63;37.13;94266.25;5052605;28;20450;-67
2022/02/07 09:37:53;;;;;;;25.70;14.33;;;;;;;14.53;37.18;94271.72;5052481;28;20508;-67
2022/02/07 09:40:21;;;;;;;25.17;14.60;;;;;;;14.34;37.08;94276.31;5052024;28;20447;-66
2022/02/07 09:42:55;;;;;;;32.07;15.07;;;;;;;13.97;37.28;94255.38;5052568;28;20442;-67
2022/02/07 09:45:35;;;;;;;23.73;14.27;;;;;;;13.41;38.39;94254.78;5052055;28;20847;-67
2022/02/07 09:48:11;;;;;;;24.33;14.27;;;;;;;13.93;37.99;94242.00;5052109;28;20450;-66
2022/02/07 09:50:38;;;;;;;29.07;13.97;;;;;;;14.02;37.75;94236.84;5051855;28;20447;-67
2022/02/07 09:53:06;;;;;;;26.03;14.73;;;;;;;14.58;37.15;94226.78;5052176;28;20431;-66
2022/02/07 09:55:33;;;;;;;24.53;13.60;;;;;;;14.54;36.70;94225.03;5052340;28;20447;-66
2022/02/07 09:58:00;;;;;;;30.47;13.73;;;;;;;14.41;36.78;94213.44;5052633;28;20431;-67
2022/02/07 10:00:33;;;;;;;29.77;15.60;;;;;;;15.04;36.28;94187.78;5052026;28;20435;-67
2022/02/07 10:05:44;;;;;;;21.83;13.63;;;;;;;15.34;35.72;94196.06;5053230;28;20447;-68
2022/02/07 10:08:18;;;;;;;32.37;15.03;;;;;;;14.64;36.28;94191.34;5051742;28;20488;-65
2022/02/07 10:11:37;;;;;;;28.87;18.10;;;;;;;15.20;36.57;94170.50;5052003;28;20442;-68
2022/02/07 10:14:19;;;;;;;20.63;12.93;;;;;;;15.17;35.82;94171.09;5051505;28;20454;-68
2022/02/07 10:17:08;;;;;;;22.93;12.70;;;;;;;15.21;35.80;94166.00;5051945;28;20829;-66
2022/02/07 10:43:29;;;;;;;20.70;13.07;;;;;;;15.25;35.88;94109.66;5050933;28;20478;-66
2022/02/07 10:46:13;;;;;;;27.50;15.70;;;;;;;15.42;36.03;94108.25;5051189;28;20993;-66
2022/02/07 10:48:42;;;;;;;25.07;14.17;;;;;;;15.42;35.68;94106.38;5050768;28;20555;-67
2022/02/07 10:51:21;;;;;;;24.60;13.40;;;;;;;15.43;36.14;94088.69;5050827;28;21124;-67
2022/02/07 10:54:11;;;;;;;19.10;13.67;;;;;;;15.48;35.99;94060.28;5050590;28;20451;-67
2022/02/07 10:56:45;;;;;;;18.27;13.50;;;;;;;15.24;36.19;94052.69;5051540;28;20525;-67
2022/02/07 10:59:20;;;;;;;22.20;14.63;;;;;;;14.91;36.21;94077.81;5050808;28;20461;-66
2022/02/07 11:04:28;;;;;;;24.43;14.47;;;;;;;15.11;36.00;94045.66;5050840;28;20423;-66
2022/02/07 11:07:02;;;;;;;23.97;15.03;;;;;;;15.09;35.97;94037.25;5051360;28;20442;-66
2022/02/07 11:09:40;;;;;;;30.37;15.53;;;;;;;14.98;36.69;94035.19;5050393;28;20478;-67
2022/02/07 11:17:55;;;;;;;24.97;13.67;;;;;;;14.40;37.21;94039.81;5050508;28;20466;-67
2022/02/07 11:25:46;;;;;;;23.17;14.40;;;;;;;15.08;36.31;94035.72;5049732;28;20968;-68
2022/02/07 11:28:21;;;;;;;23.10;14.10;;;;;;;15.06;36.97;94022.03;5050167;28;20427;-67
2022/02/07 11:30:55;;;;;;;22.70;14.43;;;;;;;14.78;36.86;94015.38;5050317;28;20504;-66
2022/02/07 11:33:33;;;;;;;25.30;17.33;;;;;;;15.02;36.22;94012.38;5049742;28;20438;-67
2022/02/07 11:36:03;;;;;;;27.77;15.57;;;;;;;14.97;36.73;94000.13;5050191;28;20439;-69
2022/02/07 11:38:30;;;;;;;31.47;17.77;;;;;;;14.80;37.36;93999.25;5050258;28;20439;-67
2022/02/07 11:41:06;;;;;;;39.60;17.30;;;;;;;15.10;36.47;93991.34;5050506;28;20451;-68
2022/02/07 11:43:38;;;;;;;30.37;17.57;;;;;;;14.81;36.70;93977.88;5049789;28;20446;-69
2022/02/07 11:46:08;;;;;;;28.70;16.10;;;;;;;14.96;37.31;93958.22;5050324;28;20475;-68
2022/02/07 11:48:43;;;;;;;28.67;15.10;;;;;;;14.77;37.26;93960.31;5049325;28;20436;-68
2022/02/07 11:51:15;;;;;;;31.20;17.30;;;;;;;14.85;37.08;93951.66;5049507;28;21052;-67
2022/02/07 11:53:58;;;;;;;38.33;19.37;;;;;;;15.14;36.96;93950.03;5049593;28;20443;-68
2022/02/07 11:56:46;;;;;;;31.83;17.13;;;;;;;14.90;37.22;93944.41;5050183;28;20443;-67
2022/02/07 11:59:38;;;;;;;29.13;16.43;;;;;;;14.61;37.68;93959.94;5049589;28;20439;-67
2022/02/07 12:02:09;;;;;;;31.63;16.97;;;;;;;14.80;37.32;93923.56;5049974;28;20457;-66
2022/02/07 12:04:48;;;;;;;31.10;17.97;;;;;;;14.95;37.63;93931.06;5049512;28;20443;-66
2022/02/07 12:07:18;;;;;;;32.67;15.37;;;;;;;14.65;38.15;93931.84;5049642;28;20895;-67
2022/02/07 12:13:38;;;;;;;29.03;16.63;;;;;;;14.60;38.35;93923.31;5047790;28;20457;-66
2022/02/07 12:16:26;;;;;;;35.63;19.77;;;;;;;14.66;37.96;93928.16;5050006;28;20430;-67
2022/02/07 12:19:14;;;;;;;32.53;18.53;;;;;;;14.42;38.45;93911.13;5048988;28;20945;-67
2022/02/07 12:21:53;;;;;;;29.40;17.27;;;;;;;14.87;37.59;93902.78;5049714;28;20454;-68
2022/02/07 12:24:19;;;;;;;24.37;14.60;;;;;;;15.01;37.27;93892.91;5049080;28;20458;-67
2022/02/07 12:26:49;;;;;;;30.43;12.17;;;;;;;14.84;37.29;93877.03;5050095;28;20797;-69
2022/02/07 12:29:47;;;;;;;19.13;9.93;;;;;;;14.63;37.34;93909.53;5049585;28;20474;-67
2022/02/07 12:32:13;;;;;;;19.57;11.67;;;;;;;14.95;36.58;93925.78;5049675;28;20451;-66
2022/02/07 12:34:40;;;;;;;20.33;12.83;;;;;;;14.69;37.10;93903.81;5049518;28;20443;-67
2022/02/07 12:37:06;;;;;;;23.47;13.57;;;;;;;14.84;37.03;93887.59;5049842;28;20466;-69
2022/02/07 12:39:40;;;;;;;25.43;14.90;;;;;;;14.96;36.73;93856.13;5049193;28;20423;-66
2022/02/07 12:42:10;;;;;;;29.23;17.23;;;;;;;15.11;37.19;93907.66;5049344;28;20434;-66
2022/02/07 12:44:37;;;;;;;31.00;18.07;;;;;;;15.19;36.97;93862.84;5048879;28;20537;-67
2022/02/07 12:47:07;;;;;;;23.07;12.87;;;;;;;14.76;36.68;93880.41;5049587;28;20451;-67
2022/02/07 12:49:36;;;;;;;16.07;9.47;;;;;;;14.59;36.50;93919.91;5048429;28;20478;-67
2022/02/07 12:52:04;;;;;;;21.80;12.97;;;;;;;14.47;37.05;93901.22;5048735;28;20435;-66
2022/02/07 12:54:35;;;;;;;18.40;10.13;;;;;;;15.10;35.93;93895.56;5048939;28;20447;-66
2022/02/07 12:57:03;;;;;;;20.60;10.57;;;;;;;15.28;35.29;93889.25;5049253;28;20427;-65
2022/02/07 12:59:31;;;;;;;20.47;10.77;;;;;;;15.06;35.31;93874.31;5049042;28;20446;-67
2022/02/07 13:01:59;;;;;;;18.40;9.03;;;;;;;14.67;36.01;93871.69;5051498;28;20443;-67
2022/02/07 13:04:26;;;;;;;17.07;9.83;;;;;;;14.77;36.22;93876.72;5052765;28;20497;-67
2022/02/07 13:06:55;;;;;;;5.53;3.30;;;;;;;15.14;34.67;93843.75;5053790;28;20450;-69
2022/02/07 13:09:30;;;;;;;9.47;4.93;;;;;;;15.11;34.79;93839.84;5052951;28;20493;-67
2022/02/07 13:12:02;;;;;;;14.13;6.17;;;;;;;14.84;35.04;93876.25;5052658;28;20499;-66
2022/02/07 13:14:36;;;;;;;17.40;7.60;;;;;;;15.37;34.86;93860.22;5052411;28;20505;-67
2022/02/07 13:17:06;;;;;;;14.67;7.60;;;;;;;15.76;34.05;93865.38;5053186;28;20463;-67
2022/02/07 13:19:38;;;;;;;17.50;9.23;;;;;;;15.89;33.87;93880.28;5052408;28;20868;-67
2022/02/07 13:22:06;;;;;;;20.90;11.60;;;;;;;15.47;34.64;93870.50;5052958;28;20993;-68
2022/02/07 13:24:39;;;;;;;26.37;13.37;;;;;;;15.45;34.52;93875.31;5053059;28;20458;-68
2022/02/07 13:27:09;;;;;;;22.83;13.90;;;;;;;15.49;34.42;93863.06;5054030;28;20449;-67
2022/02/07 13:29:44;;;;;;;18.70;12.13;;;;;;;15.16;35.39;93870.59;5052595;28;20489;-66
2022/02/07 13:32:15;;;;;;;24.53;13.13;;;;;;;15.35;35.08;93870.28;5052121;28;20446;-67
2022/02/07 13:34:43;;;;;;;27.10;15.03;;;;;;;15.29;35.27;93859.13;5051956;28;20430;-67
2022/02/07 13:37:20;;;;;;;22.83;13.37;;;;;;;15.59;34.26;93841.63;5051963;28;20504;-66
2022/02/07 13:40:01;;;;;;;16.97;8.90;;;;;;;15.48;34.30;93835.88;5051902;28;20442;-67
2022/02/07 13:42:34;;;;;;;17.87;9.10;;;;;;;15.41;34.36;93845.34;5052572;28;20443;-67
2022/02/07 13:45:10;;;;;;;13.50;7.37;;;;;;;15.52;34.24;93849.22;5051736;28;20478;-65
2022/02/07 13:47:40;;;;;;;12.07;7.30;;;;;;;15.70;34.04;93850.78;5052167;28;20453;-67
2022/02/07 13:50:19;;;;;;;14.83;7.20;;;;;;;15.83;34.00;93834.00;5051846;28;20879;-66
2022/02/07 13:52:48;;;;;;;14.83;7.47;;;;;;;15.04;35.08;93836.91;5052062;28;20439;-67
2022/02/07 13:55:18;;;;;;;14.13;7.43;;;;;;;15.50;34.44;93838.97;5051503;28;20525;-68
2022/02/07 13:58:05;;;;;;;12.97;6.93;;;;;;;15.19;34.51;93815.34;5052201;28;20891;-67
2022/02/07 14:00:47;;;;;;;13.03;6.70;;;;;;;15.64;34.49;93830.88;5032501;28;21039;-67
2022/02/07 14:03:21;;;;;;;14.07;7.37;;;;;;;15.95;34.29;93842.03;5032936;28;20447;-67
2022/02/07 14:05:52;;;;;;;12.57;7.07;;;;;;;15.70;33.80;93827.00;5032856;28;20780;-67
2022/02/07 14:08:33;;;;;;;16.00;7.10;;;;;;;15.19;34.27;93835.69;5031411;28;20841;-66
2022/02/07 14:11:01;;;;;;;12.30;6.07;;;;;;;15.45;33.64;93841.00;5030873;28;20482;-67
2022/02/07 14:13:28;;;;;;;9.23;6.10;;;;;;;15.22;34.59;93830.56;5031146;28;20443;-66
2022/02/07 14:15:55;;;;;;;13.07;6.63;;;;;;;15.79;33.63;93802.16;5032513;28;20807;-67
2022/02/07 14:18:25;;;;;;;16.17;6.30;;;;;;;14.98;34.82;93814.38;5031837;28;20470;-67
2022/02/07 14:20:52;;;;;;;12.70;6.50;;;;;;;14.90;35.05;93830.97;5031851;28;20432;-68
2022/02/07 14:23:20;;;;;;;14.90;6.33;;;;;;;15.19;34.54;93833.81;5031158;28;20431;-66
2022/02/07 14:25:53;;;;;;;13.27;6.03;;;;;;;14.64;35.20;93822.22;5030845;28;20436;-66
2022/02/07 14:28:20;;;;;;;11.47;6.07;;;;;;;15.18;34.37;93824.34;5031155;28;20478;-67
2022/02/07 14:30:47;;;;;;;14.23;6.63;;;;;;;15.59;33.82;93825.78;5031574;28;20479;-67